sensor_id;sensor_type;location;lat;lon;timestamp;P1;durP1;ratioP1;P2;durP2;ratioP2
10191;SDS011;17580;50.850;4.504;2024-03-22T00:01:05;31.67;;;24.20;;
10191;SDS011;17580;50.850;4.504;2024-03-22T00:03:32;34.33;;;26.03;;
10191;SDS011;17580;50.850;4.504;2024-03-22T00:05:59;37.40;;;27.93;;
10191;SDS011;17580;50.850;4.504;2024-03-22T00:08:27;35.37;;;26.30;;
10191;SDS011;17580;50.850;4.504;2024-03-22T00:10:54;32.47;;;23.37;;
10191;SDS011;17580;50.850;4.504;2024-03-22T00:13:21;29.10;;;22.27;;
10191;SDS011;17580;50.850;4.504;2024-03-22T00:15:48;29.80;;;23.20;;
10191;SDS011;17580;50.850;4.504;2024-03-22T00:18:15;31.60;;;23.10;;
10191;SDS011;17580;50.850;4.504;2024-03-22T00:20:43;29.73;;;22.63;;
10191;SDS011;17580;50.850;4.504;2024-03-22T00:23:09;31.97;;;23.27;;
10191;SDS011;17580;50.850;4.504;2024-03-22T00:25:38;29.20;;;20.17;;
10191;SDS011;17580;50.850;4.504;2024-03-22T00:28:04;32.13;;;20.80;;
10191;SDS011;17580;50.850;4.504;2024-03-22T00:30:32;23.47;;;19.70;;
10191;SDS011;17580;50.850;4.504;2024-03-22T00:32:58;26.17;;;19.83;;
10191;SDS011;17580;50.850;4.504;2024-03-22T00:35:25;23.07;;;18.73;;
10191;SDS011;17580;50.850;4.504;2024-03-22T00:37:51;23.37;;;18.53;;
10191;SDS011;17580;50.850;4.504;2024-03-22T00:40:19;25.00;;;19.23;;
10191;SDS011;17580;50.850;4.504;2024-03-22T00:42:47;24.00;;;18.30;;
10191;SDS011;17580;50.850;4.504;2024-03-22T00:45:15;20.47;;;16.23;;
10191;SDS011;17580;50.850;4.504;2024-03-22T00:47:42;19.17;;;16.73;;
10191;SDS011;17580;50.850;4.504;2024-03-22T00:50:10;21.37;;;16.27;;
10191;SDS011;17580;50.850;4.504;2024-03-22T00:52:37;20.87;;;16.17;;
10191;SDS011;17580;50.850;4.504;2024-03-22T00:55:05;25.87;;;16.50;;
10191;SDS011;17580;50.850;4.504;2024-03-22T00:57:31;21.77;;;15.27;;
10191;SDS011;17580;50.850;4.504;2024-03-22T01:00:00;18.67;;;15.30;;
10191;SDS011;17580;50.850;4.504;2024-03-22T01:02:26;19.03;;;15.63;;
10191;SDS011;17580;50.850;4.504;2024-03-22T01:04:54;19.90;;;16.90;;
10191;SDS011;17580;50.850;4.504;2024-03-22T01:07:20;24.03;;;17.87;;
10191;SDS011;17580;50.850;4.504;2024-03-22T01:09:47;20.50;;;15.20;;
10191;SDS011;17580;50.850;4.504;2024-03-22T01:12:14;18.63;;;15.60;;
10191;SDS011;17580;50.850;4.504;2024-03-22T01:14:41;19.77;;;16.53;;
10191;SDS011;17580;50.850;4.504;2024-03-22T01:17:09;20.37;;;16.63;;
10191;SDS011;17580;50.850;4.504;2024-03-22T01:19:36;21.57;;;16.10;;
10191;SDS011;17580;50.850;4.504;2024-03-22T01:22:02;25.17;;;17.30;;
10191;SDS011;17580;50.850;4.504;2024-03-22T01:24:30;19.10;;;16.23;;
10191;SDS011;17580;50.850;4.504;2024-03-22T01:26:56;21.07;;;16.70;;
10191;SDS011;17580;50.850;4.504;2024-03-22T01:29:23;24.17;;;16.87;;
10191;SDS011;17580;50.850;4.504;2024-03-22T01:31:50;23.17;;;17.27;;
10191;SDS011;17580;50.850;4.504;2024-03-22T01:34:18;24.27;;;19.53;;
10191;SDS011;17580;50.850;4.504;2024-03-22T01:36:45;22.97;;;18.47;;
10191;SDS011;17580;50.850;4.504;2024-03-22T01:39:12;23.77;;;18.70;;
10191;SDS011;17580;50.850;4.504;2024-03-22T01:41:39;25.20;;;17.23;;
10191;SDS011;17580;50.850;4.504;2024-03-22T01:44:06;20.87;;;17.73;;
10191;SDS011;17580;50.850;4.504;2024-03-22T01:46:33;23.33;;;18.70;;
10191;SDS011;17580;50.850;4.504;2024-03-22T01:49:00;25.57;;;19.97;;
10191;SDS011;17580;50.850;4.504;2024-03-22T01:51:28;25.20;;;19.13;;
10191;SDS011;17580;50.850;4.504;2024-03-22T01:53:55;26.00;;;20.77;;
10191;SDS011;17580;50.850;4.504;2024-03-22T01:56:22;22.47;;;18.70;;
10191;SDS011;17580;50.850;4.504;2024-03-22T01:58:50;24.83;;;20.20;;
10191;SDS011;17580;50.850;4.504;2024-03-22T02:01:16;19.80;;;17.63;;
10191;SDS011;17580;50.850;4.504;2024-03-22T02:03:43;23.97;;;17.30;;
10191;SDS011;17580;50.850;4.504;2024-03-22T02:06:10;24.40;;;19.33;;
10191;SDS011;17580;50.850;4.504;2024-03-22T02:08:38;25.63;;;20.03;;
10191;SDS011;17580;50.850;4.504;2024-03-22T02:11:07;26.43;;;20.83;;
10191;SDS011;17580;50.850;4.504;2024-03-22T02:13:34;23.23;;;19.20;;
10191;SDS011;17580;50.850;4.504;2024-03-22T02:16:02;29.47;;;20.13;;
10191;SDS011;17580;50.850;4.504;2024-03-22T02:18:29;25.57;;;20.10;;
10191;SDS011;17580;50.850;4.504;2024-03-22T02:20:56;23.43;;;19.70;;
10191;SDS011;17580;50.850;4.504;2024-03-22T02:23:28;26.57;;;19.97;;
10191;SDS011;17580;50.850;4.504;2024-03-22T02:25:55;31.37;;;18.53;;
10191;SDS011;17580;50.850;4.504;2024-03-22T02:28:22;21.03;;;16.70;;
10191;SDS011;17580;50.850;4.504;2024-03-22T02:30:49;26.67;;;18.73;;
10191;SDS011;17580;50.850;4.504;2024-03-22T02:33:16;25.33;;;18.47;;
10191;SDS011;17580;50.850;4.504;2024-03-22T02:35:42;22.57;;;18.93;;
10191;SDS011;17580;50.850;4.504;2024-03-22T02:38:09;23.80;;;18.37;;
10191;SDS011;17580;50.850;4.504;2024-03-22T02:40:37;23.83;;;17.87;;
10191;SDS011;17580;50.850;4.504;2024-03-22T02:43:04;27.47;;;20.00;;
10191;SDS011;17580;50.850;4.504;2024-03-22T02:45:31;25.83;;;18.53;;
10191;SDS011;17580;50.850;4.504;2024-03-22T02:47:59;21.13;;;16.70;;
10191;SDS011;17580;50.850;4.504;2024-03-22T02:50:25;19.27;;;17.17;;
10191;SDS011;17580;50.850;4.504;2024-03-22T02:52:52;23.43;;;17.40;;
10191;SDS011;17580;50.850;4.504;2024-03-22T02:55:18;20.60;;;17.07;;
10191;SDS011;17580;50.850;4.504;2024-03-22T02:57:48;21.13;;;15.93;;
10191;SDS011;17580;50.850;4.504;2024-03-22T03:00:15;24.13;;;17.97;;
10191;SDS011;17580;50.850;4.504;2024-03-22T03:02:43;19.37;;;16.20;;
10191;SDS011;17580;50.850;4.504;2024-03-22T03:05:10;20.93;;;16.10;;
10191;SDS011;17580;50.850;4.504;2024-03-22T03:07:37;19.07;;;15.00;;
10191;SDS011;17580;50.850;4.504;2024-03-22T03:10:04;20.40;;;16.77;;
10191;SDS011;17580;50.850;4.504;2024-03-22T03:12:30;19.63;;;16.37;;
10191;SDS011;17580;50.850;4.504;2024-03-22T03:14:59;21.97;;;15.77;;
10191;SDS011;17580;50.850;4.504;2024-03-22T03:17:25;24.03;;;17.73;;
10191;SDS011;17580;50.850;4.504;2024-03-22T03:19:53;19.43;;;16.97;;
10191;SDS011;17580;50.850;4.504;2024-03-22T03:22:19;20.07;;;15.47;;
10191;SDS011;17580;50.850;4.504;2024-03-22T03:24:46;23.33;;;16.20;;
10191;SDS011;17580;50.850;4.504;2024-03-22T03:27:12;19.83;;;15.47;;
10191;SDS011;17580;50.850;4.504;2024-03-22T03:29:40;20.90;;;15.93;;
10191;SDS011;17580;50.850;4.504;2024-03-22T03:32:07;19.40;;;14.03;;
10191;SDS011;17580;50.850;4.504;2024-03-22T03:34:35;18.17;;;14.23;;
10191;SDS011;17580;50.850;4.504;2024-03-22T03:37:01;17.23;;;13.47;;
10191;SDS011;17580;50.850;4.504;2024-03-22T03:39:28;21.40;;;14.57;;
10191;SDS011;17580;50.850;4.504;2024-03-22T03:41:55;18.67;;;15.00;;
10191;SDS011;17580;50.850;4.504;2024-03-22T03:44:22;19.37;;;14.93;;
10191;SDS011;17580;50.850;4.504;2024-03-22T03:46:48;17.50;;;14.83;;
10191;SDS011;17580;50.850;4.504;2024-03-22T03:49:17;17.77;;;13.57;;
10191;SDS011;17580;50.850;4.504;2024-03-22T03:51:43;18.20;;;13.80;;
10191;SDS011;17580;50.850;4.504;2024-03-22T03:54:11;18.13;;;14.70;;
10191;SDS011;17580;50.850;4.504;2024-03-22T03:56:37;14.30;;;12.47;;
10191;SDS011;17580;50.850;4.504;2024-03-22T03:59:04;14.77;;;12.73;;
10191;SDS011;17580;50.850;4.504;2024-03-22T04:01:30;18.93;;;14.43;;
10191;SDS011;17580;50.850;4.504;2024-03-22T04:03:58;21.07;;;14.63;;
10191;SDS011;17580;50.850;4.504;2024-03-22T04:06:25;17.63;;;14.23;;
10191;SDS011;17580;50.850;4.504;2024-03-22T04:08:53;17.37;;;13.83;;
10191;SDS011;17580;50.850;4.504;2024-03-22T04:11:19;14.30;;;12.70;;
10191;SDS011;17580;50.850;4.504;2024-03-22T04:13:46;15.23;;;12.57;;
10191;SDS011;17580;50.850;4.504;2024-03-22T04:16:13;17.90;;;13.73;;
10191;SDS011;17580;50.850;4.504;2024-03-22T04:18:40;18.97;;;12.50;;
10191;SDS011;17580;50.850;4.504;2024-03-22T04:21:06;21.87;;;12.87;;
10191;SDS011;17580;50.850;4.504;2024-03-22T04:23:35;18.93;;;13.40;;
10191;SDS011;17580;50.850;4.504;2024-03-22T04:26:02;17.03;;;14.10;;
10191;SDS011;17580;50.850;4.504;2024-03-22T04:28:29;16.73;;;13.87;;
10191;SDS011;17580;50.850;4.504;2024-03-22T04:30:56;19.10;;;13.73;;
10191;SDS011;17580;50.850;4.504;2024-03-22T04:33:23;16.10;;;12.53;;
10191;SDS011;17580;50.850;4.504;2024-03-22T04:35:50;18.77;;;13.10;;
10191;SDS011;17580;50.850;4.504;2024-03-22T04:38:17;20.63;;;13.17;;
10191;SDS011;17580;50.850;4.504;2024-03-22T04:40:46;16.17;;;11.87;;
10191;SDS011;17580;50.850;4.504;2024-03-22T04:43:14;16.07;;;12.63;;
10191;SDS011;17580;50.850;4.504;2024-03-22T04:45:41;16.33;;;12.37;;
10191;SDS011;17580;50.850;4.504;2024-03-22T04:48:08;15.23;;;12.23;;
10191;SDS011;17580;50.850;4.504;2024-03-22T04:50:34;16.73;;;12.77;;
10191;SDS011;17580;50.850;4.504;2024-03-22T04:53:02;19.70;;;14.27;;
10191;SDS011;17580;50.850;4.504;2024-03-22T04:55:28;17.77;;;12.70;;
10191;SDS011;17580;50.850;4.504;2024-03-22T04:57:57;16.90;;;12.77;;
10191;SDS011;17580;50.850;4.504;2024-03-22T05:00:23;18.17;;;11.77;;
10191;SDS011;17580;50.850;4.504;2024-03-22T05:02:51;17.33;;;13.13;;
10191;SDS011;17580;50.850;4.504;2024-03-22T05:05:17;15.23;;;12.30;;
10191;SDS011;17580;50.850;4.504;2024-03-22T05:07:45;13.53;;;11.80;;
10191;SDS011;17580;50.850;4.504;2024-03-22T05:10:11;16.00;;;12.40;;
10191;SDS011;17580;50.850;4.504;2024-03-22T05:12:38;23.20;;;14.27;;
10191;SDS011;17580;50.850;4.504;2024-03-22T05:15:07;17.93;;;12.87;;
10191;SDS011;17580;50.850;4.504;2024-03-22T05:17:34;18.27;;;13.17;;
10191;SDS011;17580;50.850;4.504;2024-03-22T05:20:01;15.23;;;12.50;;
10191;SDS011;17580;50.850;4.504;2024-03-22T05:22:28;16.50;;;12.53;;
10191;SDS011;17580;50.850;4.504;2024-03-22T05:24:54;18.87;;;13.90;;
10191;SDS011;17580;50.850;4.504;2024-03-22T05:27:22;18.40;;;13.70;;
10191;SDS011;17580;50.850;4.504;2024-03-22T05:29:48;20.10;;;13.20;;
10191;SDS011;17580;50.850;4.504;2024-03-22T05:32:20;19.03;;;13.33;;
10191;SDS011;17580;50.850;4.504;2024-03-22T05:34:46;17.77;;;14.17;;
10191;SDS011;17580;50.850;4.504;2024-03-22T05:37:13;18.73;;;14.03;;
10191;SDS011;17580;50.850;4.504;2024-03-22T05:39:40;18.60;;;13.83;;
10191;SDS011;17580;50.850;4.504;2024-03-22T05:42:07;18.03;;;13.80;;
10191;SDS011;17580;50.850;4.504;2024-03-22T05:44:33;17.47;;;13.40;;
10191;SDS011;17580;50.850;4.504;2024-03-22T05:47:01;14.17;;;12.07;;
10191;SDS011;17580;50.850;4.504;2024-03-22T05:49:29;19.83;;;14.90;;
10191;SDS011;17580;50.850;4.504;2024-03-22T05:51:56;14.13;;;12.63;;
10191;SDS011;17580;50.850;4.504;2024-03-22T05:54:23;16.87;;;13.57;;
10191;SDS011;17580;50.850;4.504;2024-03-22T05:56:50;19.03;;;14.00;;
10191;SDS011;17580;50.850;4.504;2024-03-22T05:59:17;14.27;;;12.67;;
10191;SDS011;17580;50.850;4.504;2024-03-22T06:01:43;17.60;;;14.20;;
10191;SDS011;17580;50.850;4.504;2024-03-22T06:04:11;17.63;;;13.77;;
10191;SDS011;17580;50.850;4.504;2024-03-22T06:06:38;20.93;;;14.70;;
10191;SDS011;17580;50.850;4.504;2024-03-22T06:09:06;16.90;;;13.00;;
10191;SDS011;17580;50.850;4.504;2024-03-22T06:11:36;16.73;;;12.70;;
10191;SDS011;17580;50.850;4.504;2024-03-22T06:14:03;15.17;;;12.17;;
10191;SDS011;17580;50.850;4.504;2024-03-22T06:16:30;16.47;;;12.50;;
10191;SDS011;17580;50.850;4.504;2024-03-22T06:18:57;13.93;;;11.73;;
10191;SDS011;17580;50.850;4.504;2024-03-22T06:21:23;16.27;;;12.53;;
10191;SDS011;17580;50.850;4.504;2024-03-22T06:23:53;12.67;;;11.37;;
10191;SDS011;17580;50.850;4.504;2024-03-22T06:26:19;14.03;;;12.53;;
10191;SDS011;17580;50.850;4.504;2024-03-22T06:28:48;14.17;;;12.00;;
10191;SDS011;17580;50.850;4.504;2024-03-22T06:31:14;13.30;;;11.00;;
10191;SDS011;17580;50.850;4.504;2024-03-22T06:33:42;16.50;;;12.63;;
10191;SDS011;17580;50.850;4.504;2024-03-22T06:36:08;13.13;;;11.67;;
10191;SDS011;17580;50.850;4.504;2024-03-22T06:38:36;12.67;;;10.83;;
10191;SDS011;17580;50.850;4.504;2024-03-22T06:41:04;14.60;;;12.13;;
10191;SDS011;17580;50.850;4.504;2024-03-22T06:43:32;12.70;;;11.30;;
10191;SDS011;17580;50.850;4.504;2024-03-22T06:45:58;14.60;;;11.93;;
10191;SDS011;17580;50.850;4.504;2024-03-22T06:48:25;14.07;;;11.57;;
10191;SDS011;17580;50.850;4.504;2024-03-22T06:50:52;15.27;;;12.33;;
10191;SDS011;17580;50.850;4.504;2024-03-22T06:53:19;14.80;;;12.53;;
10191;SDS011;17580;50.850;4.504;2024-03-22T06:55:46;12.27;;;10.97;;
10191;SDS011;17580;50.850;4.504;2024-03-22T06:58:14;15.70;;;12.60;;
10191;SDS011;17580;50.850;4.504;2024-03-22T07:00:41;13.13;;;11.70;;
10191;SDS011;17580;50.850;4.504;2024-03-22T07:03:08;13.50;;;11.80;;
10191;SDS011;17580;50.850;4.504;2024-03-22T07:05:35;15.43;;;11.53;;
10191;SDS011;17580;50.850;4.504;2024-03-22T07:08:02;11.13;;;9.83;;
10191;SDS011;17580;50.850;4.504;2024-03-22T07:10:29;14.70;;;12.33;;
10191;SDS011;17580;50.850;4.504;2024-03-22T07:12:56;20.10;;;13.00;;
10191;SDS011;17580;50.850;4.504;2024-03-22T07:15:24;15.03;;;12.27;;
10191;SDS011;17580;50.850;4.504;2024-03-22T07:17:51;14.40;;;11.80;;
10191;SDS011;17580;50.850;4.504;2024-03-22T07:20:18;15.83;;;12.40;;
10191;SDS011;17580;50.850;4.504;2024-03-22T07:22:45;14.37;;;11.37;;
10191;SDS011;17580;50.850;4.504;2024-03-22T07:25:11;14.00;;;11.57;;
10191;SDS011;17580;50.850;4.504;2024-03-22T07:27:39;15.77;;;12.13;;
10191;SDS011;17580;50.850;4.504;2024-03-22T07:30:05;16.93;;;11.33;;
10191;SDS011;17580;50.850;4.504;2024-03-22T07:32:34;15.67;;;11.73;;
10191;SDS011;17580;50.850;4.504;2024-03-22T07:35:02;15.17;;;12.43;;
10191;SDS011;17580;50.850;4.504;2024-03-22T07:37:30;20.50;;;13.33;;
10191;SDS011;17580;50.850;4.504;2024-03-22T07:39:56;15.97;;;11.87;;
10191;SDS011;17580;50.850;4.504;2024-03-22T07:42:23;18.20;;;13.03;;
10191;SDS011;17580;50.850;4.504;2024-03-22T07:44:50;16.10;;;12.13;;
10191;SDS011;17580;50.850;4.504;2024-03-22T07:47:17;16.53;;;12.33;;
10191;SDS011;17580;50.850;4.504;2024-03-22T07:49:45;17.60;;;12.20;;
10191;SDS011;17580;50.850;4.504;2024-03-22T07:52:12;15.80;;;11.47;;
10191;SDS011;17580;50.850;4.504;2024-03-22T07:54:38;19.03;;;12.20;;
10191;SDS011;17580;50.850;4.504;2024-03-22T07:57:06;17.13;;;12.53;;
10191;SDS011;17580;50.850;4.504;2024-03-22T07:59:32;15.97;;;12.33;;
10191;SDS011;17580;50.850;4.504;2024-03-22T08:01:59;15.00;;;10.70;;
10191;SDS011;17580;50.850;4.504;2024-03-22T08:04:26;14.37;;;12.03;;
10191;SDS011;17580;50.850;4.504;2024-03-22T08:06:54;18.03;;;12.97;;
10191;SDS011;17580;50.850;4.504;2024-03-22T08:09:20;17.13;;;13.67;;
10191;SDS011;17580;50.850;4.504;2024-03-22T08:11:48;14.70;;;12.03;;
10191;SDS011;17580;50.850;4.504;2024-03-22T08:14:14;15.50;;;12.83;;
10191;SDS011;17580;50.850;4.504;2024-03-22T08:16:42;13.60;;;12.10;;
10191;SDS011;17580;50.850;4.504;2024-03-22T08:19:08;14.57;;;11.60;;
10191;SDS011;17580;50.850;4.504;2024-03-22T08:21:35;14.30;;;11.37;;
10191;SDS011;17580;50.850;4.504;2024-03-22T08:24:04;12.80;;;10.30;;
10191;SDS011;17580;50.850;4.504;2024-03-22T08:26:31;12.10;;;9.70;;
10191;SDS011;17580;50.850;4.504;2024-03-22T08:28:57;13.30;;;11.47;;
10191;SDS011;17580;50.850;4.504;2024-03-22T08:31:25;17.03;;;12.50;;
10191;SDS011;17580;50.850;4.504;2024-03-22T08:33:53;14.10;;;11.37;;
10191;SDS011;17580;50.850;4.504;2024-03-22T08:36:21;14.23;;;12.37;;
10191;SDS011;17580;50.850;4.504;2024-03-22T08:38:48;17.20;;;13.70;;
10191;SDS011;17580;50.850;4.504;2024-03-22T08:41:17;15.67;;;13.63;;
10191;SDS011;17580;50.850;4.504;2024-03-22T08:43:43;19.73;;;14.20;;
10191;SDS011;17580;50.850;4.504;2024-03-22T08:46:11;17.57;;;14.30;;
10191;SDS011;17580;50.850;4.504;2024-03-22T08:48:37;16.17;;;14.00;;
10191;SDS011;17580;50.850;4.504;2024-03-22T08:51:04;17.07;;;13.27;;
10191;SDS011;17580;50.850;4.504;2024-03-22T08:53:31;17.13;;;13.63;;
10191;SDS011;17580;50.850;4.504;2024-03-22T08:55:58;14.77;;;12.67;;
10191;SDS011;17580;50.850;4.504;2024-03-22T08:58:26;16.37;;;13.07;;
10191;SDS011;17580;50.850;4.504;2024-03-22T09:00:53;14.27;;;12.33;;
10191;SDS011;17580;50.850;4.504;2024-03-22T09:03:20;16.23;;;12.77;;
10191;SDS011;17580;50.850;4.504;2024-03-22T09:05:47;14.43;;;12.77;;
10191;SDS011;17580;50.850;4.504;2024-03-22T09:08:14;14.27;;;12.77;;
10191;SDS011;17580;50.850;4.504;2024-03-22T09:10:41;17.37;;;13.43;;
10191;SDS011;17580;50.850;4.504;2024-03-22T09:13:07;13.83;;;11.47;;
10191;SDS011;17580;50.850;4.504;2024-03-22T09:15:39;15.17;;;13.00;;
10191;SDS011;17580;50.850;4.504;2024-03-22T09:18:05;14.87;;;11.63;;
10191;SDS011;17580;50.850;4.504;2024-03-22T09:20:32;13.67;;;11.30;;
10191;SDS011;17580;50.850;4.504;2024-03-22T09:22:59;14.40;;;12.10;;
10191;SDS011;17580;50.850;4.504;2024-03-22T09:25:26;14.13;;;11.13;;
10191;SDS011;17580;50.850;4.504;2024-03-22T09:27:54;13.33;;;10.83;;
10191;SDS011;17580;50.850;4.504;2024-03-22T09:30:21;12.90;;;11.43;;
10191;SDS011;17580;50.850;4.504;2024-03-22T09:32:49;12.43;;;10.17;;
10191;SDS011;17580;50.850;4.504;2024-03-22T09:35:17;13.77;;;11.23;;
10191;SDS011;17580;50.850;4.504;2024-03-22T09:37:43;14.80;;;10.97;;
10191;SDS011;17580;50.850;4.504;2024-03-22T09:40:11;12.50;;;10.80;;
10191;SDS011;17580;50.850;4.504;2024-03-22T09:42:37;12.63;;;10.70;;
10191;SDS011;17580;50.850;4.504;2024-03-22T09:45:08;11.47;;;10.37;;
10191;SDS011;17580;50.850;4.504;2024-03-22T09:47:36;15.83;;;12.30;;
10191;SDS011;17580;50.850;4.504;2024-03-22T09:50:06;20.27;;;13.57;;
10191;SDS011;17580;50.850;4.504;2024-03-22T09:52:33;13.63;;;12.20;;
10191;SDS011;17580;50.850;4.504;2024-03-22T09:55:02;14.73;;;11.33;;
10191;SDS011;17580;50.850;4.504;2024-03-22T09:57:29;16.67;;;11.50;;
10191;SDS011;17580;50.850;4.504;2024-03-22T09:59:58;15.10;;;11.70;;
10191;SDS011;17580;50.850;4.504;2024-03-22T10:02:24;13.57;;;11.27;;
10191;SDS011;17580;50.850;4.504;2024-03-22T10:04:52;14.03;;;10.77;;
10191;SDS011;17580;50.850;4.504;2024-03-22T10:07:20;12.03;;;10.77;;
10191;SDS011;17580;50.850;4.504;2024-03-22T10:09:47;15.47;;;12.30;;
10191;SDS011;17580;50.850;4.504;2024-03-22T10:12:16;14.00;;;12.37;;
10191;SDS011;17580;50.850;4.504;2024-03-22T10:14:43;17.90;;;12.20;;
10191;SDS011;17580;50.850;4.504;2024-03-22T10:17:09;16.17;;;12.97;;
10191;SDS011;17580;50.850;4.504;2024-03-22T10:19:37;12.33;;;10.47;;
10191;SDS011;17580;50.850;4.504;2024-03-22T10:22:05;21.13;;;12.50;;
10191;SDS011;17580;50.850;4.504;2024-03-22T10:24:34;13.40;;;11.93;;
10191;SDS011;17580;50.850;4.504;2024-03-22T10:27:01;14.10;;;11.77;;
10191;SDS011;17580;50.850;4.504;2024-03-22T10:29:28;16.47;;;12.17;;
10191;SDS011;17580;50.850;4.504;2024-03-22T10:31:55;13.47;;;11.00;;
10191;SDS011;17580;50.850;4.504;2024-03-22T10:34:24;14.77;;;11.50;;
10191;SDS011;17580;50.850;4.504;2024-03-22T10:36:50;12.03;;;10.80;;
10191;SDS011;17580;50.850;4.504;2024-03-22T10:39:18;14.07;;;11.10;;
10191;SDS011;17580;50.850;4.504;2024-03-22T10:41:46;13.60;;;10.83;;
10191;SDS011;17580;50.850;4.504;2024-03-22T10:44:13;11.20;;;10.10;;
10191;SDS011;17580;50.850;4.504;2024-03-22T10:46:43;12.70;;;10.67;;
10191;SDS011;17580;50.850;4.504;2024-03-22T10:49:15;13.70;;;10.20;;
10191;SDS011;17580;50.850;4.504;2024-03-22T10:51:41;10.87;;;9.57;;
10191;SDS011;17580;50.850;4.504;2024-03-22T10:54:10;11.33;;;10.13;;
10191;SDS011;17580;50.850;4.504;2024-03-22T10:56:37;16.50;;;10.33;;
10191;SDS011;17580;50.850;4.504;2024-03-22T10:59:07;12.70;;;9.83;;
10191;SDS011;17580;50.850;4.504;2024-03-22T11:01:33;11.40;;;10.20;;
10191;SDS011;17580;50.850;4.504;2024-03-22T11:04:04;13.47;;;10.37;;
10191;SDS011;17580;50.850;4.504;2024-03-22T11:06:31;16.10;;;10.97;;
10191;SDS011;17580;50.850;4.504;2024-03-22T11:09:02;12.20;;;9.87;;
10191;SDS011;17580;50.850;4.504;2024-03-22T11:11:29;10.90;;;9.77;;
10191;SDS011;17580;50.850;4.504;2024-03-22T11:14:02;11.20;;;9.57;;
10191;SDS011;17580;50.850;4.504;2024-03-22T11:16:30;14.40;;;10.97;;
10191;SDS011;17580;50.850;4.504;2024-03-22T11:18:57;14.73;;;11.60;;
10191;SDS011;17580;50.850;4.504;2024-03-22T11:21:24;13.17;;;10.70;;
10191;SDS011;17580;50.850;4.504;2024-03-22T11:23:51;13.37;;;11.10;;
10191;SDS011;17580;50.850;4.504;2024-03-22T11:26:17;12.00;;;10.77;;
10191;SDS011;17580;50.850;4.504;2024-03-22T11:28:46;11.87;;;10.67;;
10191;SDS011;17580;50.850;4.504;2024-03-22T11:31:12;12.17;;;10.93;;
10191;SDS011;17580;50.850;4.504;2024-03-22T11:33:41;14.50;;;11.73;;
10191;SDS011;17580;50.850;4.504;2024-03-22T11:36:07;15.77;;;11.67;;
10191;SDS011;17580;50.850;4.504;2024-03-22T11:38:35;16.17;;;11.73;;
10191;SDS011;17580;50.850;4.504;2024-03-22T11:41:02;12.23;;;10.20;;
10191;SDS011;17580;50.850;4.504;2024-03-22T11:43:30;12.07;;;10.50;;
10191;SDS011;17580;50.850;4.504;2024-03-22T11:45:56;12.53;;;9.97;;
10191;SDS011;17580;50.850;4.504;2024-03-22T11:48:24;11.80;;;9.83;;
10191;SDS011;17580;50.850;4.504;2024-03-22T11:50:52;13.50;;;10.33;;
10191;SDS011;17580;50.850;4.504;2024-03-22T11:53:21;14.80;;;10.57;;
10191;SDS011;17580;50.850;4.504;2024-03-22T11:55:49;16.00;;;11.93;;
10191;SDS011;17580;50.850;4.504;2024-03-22T11:58:17;11.67;;;10.23;;
10191;SDS011;17580;50.850;4.504;2024-03-22T12:00:44;18.50;;;10.60;;
10191;SDS011;17580;50.850;4.504;2024-03-22T12:03:11;12.27;;;10.60;;
10191;SDS011;17580;50.850;4.504;2024-03-22T12:05:37;15.13;;;11.07;;
10191;SDS011;17580;50.850;4.504;2024-03-22T12:08:06;11.17;;;10.03;;
10191;SDS011;17580;50.850;4.504;2024-03-22T12:10:33;10.90;;;9.60;;
10191;SDS011;17580;50.850;4.504;2024-03-22T12:13:00;11.83;;;10.30;;
10191;SDS011;17580;50.850;4.504;2024-03-22T12:15:26;13.20;;;9.67;;
10191;SDS011;17580;50.850;4.504;2024-03-22T12:17:54;17.93;;;12.03;;
10191;SDS011;17580;50.850;4.504;2024-03-22T12:20:20;14.00;;;11.03;;
10191;SDS011;17580;50.850;4.504;2024-03-22T12:22:47;12.83;;;11.53;;
10191;SDS011;17580;50.850;4.504;2024-03-22T12:25:15;18.30;;;11.40;;
10191;SDS011;17580;50.850;4.504;2024-03-22T12:27:42;15.67;;;11.50;;
10191;SDS011;17580;50.850;4.504;2024-03-22T12:30:10;18.60;;;11.23;;
10191;SDS011;17580;50.850;4.504;2024-03-22T12:32:37;10.90;;;9.80;;
10191;SDS011;17580;50.850;4.504;2024-03-22T12:35:04;14.60;;;9.77;;
10191;SDS011;17580;50.850;4.504;2024-03-22T12:37:33;12.53;;;9.83;;
10191;SDS011;17580;50.850;4.504;2024-03-22T12:40:01;15.00;;;11.07;;
10191;SDS011;17580;50.850;4.504;2024-03-22T12:42:30;10.97;;;9.83;;
10191;SDS011;17580;50.850;4.504;2024-03-22T12:44:56;10.70;;;9.23;;
10191;SDS011;17580;50.850;4.504;2024-03-22T12:47:23;11.83;;;9.70;;
10191;SDS011;17580;50.850;4.504;2024-03-22T12:49:50;13.17;;;10.63;;
10191;SDS011;17580;50.850;4.504;2024-03-22T12:52:18;15.40;;;11.37;;
10191;SDS011;17580;50.850;4.504;2024-03-22T12:54:44;18.83;;;11.20;;
10191;SDS011;17580;50.850;4.504;2024-03-22T12:57:11;14.10;;;11.53;;
10191;SDS011;17580;50.850;4.504;2024-03-22T12:59:39;13.63;;;11.30;;
10191;SDS011;17580;50.850;4.504;2024-03-22T13:02:06;10.83;;;9.70;;
10191;SDS011;17580;50.850;4.504;2024-03-22T13:04:33;12.53;;;10.03;;
10191;SDS011;17580;50.850;4.504;2024-03-22T13:07:00;10.80;;;8.20;;
10191;SDS011;17580;50.850;4.504;2024-03-22T13:09:27;12.77;;;8.97;;
10191;SDS011;17580;50.850;4.504;2024-03-22T13:11:54;14.43;;;9.00;;
10191;SDS011;17580;50.850;4.504;2024-03-22T13:14:20;14.13;;;9.70;;
10191;SDS011;17580;50.850;4.504;2024-03-22T13:16:49;10.90;;;8.03;;
10191;SDS011;17580;50.850;4.504;2024-03-22T13:19:15;13.80;;;8.90;;
10191;SDS011;17580;50.850;4.504;2024-03-22T13:21:43;15.87;;;10.03;;
10191;SDS011;17580;50.850;4.504;2024-03-22T13:24:13;13.30;;;9.40;;
10191;SDS011;17580;50.850;4.504;2024-03-22T13:26:40;15.07;;;9.63;;
10191;SDS011;17580;50.850;4.504;2024-03-22T13:29:06;11.47;;;9.80;;
10191;SDS011;17580;50.850;4.504;2024-03-22T13:31:35;10.47;;;8.13;;
10191;SDS011;17580;50.850;4.504;2024-03-22T13:34:03;10.43;;;8.63;;
10191;SDS011;17580;50.850;4.504;2024-03-22T13:36:30;12.53;;;9.50;;
10191;SDS011;17580;50.850;4.504;2024-03-22T13:38:57;11.30;;;8.17;;
10191;SDS011;17580;50.850;4.504;2024-03-22T13:41:25;11.50;;;9.10;;
10191;SDS011;17580;50.850;4.504;2024-03-22T13:43:51;16.40;;;10.57;;
10191;SDS011;17580;50.850;4.504;2024-03-22T13:46:18;12.27;;;9.40;;
10191;SDS011;17580;50.850;4.504;2024-03-22T13:48:45;12.93;;;8.73;;
10191;SDS011;17580;50.850;4.504;2024-03-22T13:51:14;10.90;;;8.70;;
10191;SDS011;17580;50.850;4.504;2024-03-22T13:53:40;11.27;;;8.57;;
10191;SDS011;17580;50.850;4.504;2024-03-22T13:56:08;12.20;;;8.03;;
10191;SDS011;17580;50.850;4.504;2024-03-22T13:58:34;11.00;;;8.07;;
10191;SDS011;17580;50.850;4.504;2024-03-22T14:01:01;10.80;;;7.70;;
10191;SDS011;17580;50.850;4.504;2024-03-22T14:03:28;16.37;;;8.17;;
10191;SDS011;17580;50.850;4.504;2024-03-22T14:05:55;17.43;;;8.67;;
10191;SDS011;17580;50.850;4.504;2024-03-22T14:08:23;14.17;;;8.30;;
10191;SDS011;17580;50.850;4.504;2024-03-22T14:10:50;10.83;;;8.83;;
10191;SDS011;17580;50.850;4.504;2024-03-22T14:13:16;9.03;;;7.33;;
10191;SDS011;17580;50.850;4.504;2024-03-22T14:15:44;9.40;;;7.43;;
10191;SDS011;17580;50.850;4.504;2024-03-22T14:18:10;15.87;;;9.73;;
10191;SDS011;17580;50.850;4.504;2024-03-22T14:20:37;10.63;;;7.97;;
10191;SDS011;17580;50.850;4.504;2024-03-22T14:23:03;10.93;;;8.77;;